createdAt,value
2023-05-19T00:00:02.390Z,102050.47
2023-05-19T00:02:04.134Z,102064.16
2023-05-19T00:04:05.900Z,102071.25
2023-05-19T00:06:08.297Z,102064.38
2023-05-19T00:08:10.967Z,102060.44
2023-05-19T00:10:12.936Z,102068.28
2023-05-19T00:12:15.034Z,102059.59
2023-05-19T00:14:16.922Z,102072.25
2023-05-19T00:16:18.704Z,102060.84
2023-05-19T00:18:20.306Z,102057.19
2023-05-19T00:20:22.298Z,102056.78
2023-05-19T00:22:23.727Z,102070.28
2023-05-19T00:24:25.158Z,102060.47
2023-05-19T00:26:27.536Z,102073.69
2023-05-19T00:28:28.973Z,102067.56
2023-05-19T00:30:30.879Z,102040.97
2023-05-19T00:32:32.573Z,102049.25
2023-05-19T00:34:34.069Z,102053.63
2023-05-19T00:36:35.528Z,102073.06
2023-05-19T00:38:37.393Z,102067.22
2023-05-19T00:40:38.938Z,102070.50
2023-05-19T00:42:41.388Z,102062.53
2023-05-19T00:44:43.005Z,102065.53
2023-05-19T00:46:44.454Z,102061.13
2023-05-19T00:48:46.130Z,102041.19
2023-05-19T00:50:48.469Z,102042.19
2023-05-19T00:52:51.058Z,102063.69
2023-05-19T00:54:53.487Z,102052.03
2023-05-19T00:56:55.972Z,102047.88
2023-05-19T00:58:57.499Z,102066.50
2023-05-19T01:01:00.172Z,102063.41
2023-05-19T01:03:02.382Z,102059.75
2023-05-19T01:05:04.237Z,102051.34
2023-05-19T01:07:05.741Z,102061.91
2023-05-19T01:09:07.273Z,102056.06
2023-05-19T01:11:08.811Z,102064.38
2023-05-19T01:13:10.295Z,102066.28
2023-05-19T01:15:12.577Z,102069.44
2023-05-19T01:17:29.755Z,102050.00
2023-05-19T01:19:49.407Z,102069.16
2023-05-19T01:21:59.646Z,102055.16
2023-05-19T01:24:41.863Z,102061.69
2023-05-19T01:27:07.585Z,102069.88
2023-05-19T01:29:41.126Z,102072.78
2023-05-19T01:31:44.133Z,102056.06
2023-05-19T01:33:47.533Z,102076.06
2023-05-19T01:35:50.670Z,102076.31
2023-05-19T01:37:55.372Z,102053.53
2023-05-19T01:39:57.344Z,102070.78
2023-05-19T01:42:00.896Z,102067.16
2023-05-19T01:44:02.554Z,102062.56
2023-05-19T01:46:05.432Z,102068.94
2023-05-19T01:48:10.660Z,102068.97
2023-05-19T01:50:12.812Z,102054.44
2023-05-19T01:52:14.422Z,102079.69
2023-05-19T01:54:15.889Z,102081.84
2023-05-19T01:56:27.029Z,102067.50
2023-05-19T01:58:44.541Z,102073.47
2023-05-19T02:01:07.714Z,102075.81
2023-05-19T02:03:14.696Z,102065.16
2023-05-19T02:05:26.429Z,102071.91
2023-05-19T02:07:33.756Z,102068.13
2023-05-19T02:09:43.576Z,102061.72
2023-05-19T02:12:02.972Z,102075.09
2023-05-19T02:14:13.760Z,102075.59
2023-05-19T02:16:17.140Z,102076.41
2023-05-19T02:18:19.077Z,102057.94
2023-05-19T02:20:21.487Z,102074.59
2023-05-19T02:22:22.961Z,102069.56
2023-05-19T02:24:24.591Z,102077.06
2023-05-19T02:26:26.068Z,102077.75
2023-05-19T02:28:27.500Z,102081.59
2023-05-19T02:30:29.067Z,102072.22
2023-05-19T02:32:31.816Z,102083.88
2023-05-19T02:34:33.266Z,102080.69
2023-05-19T02:36:35.688Z,102080.47
2023-05-19T02:38:37.143Z,102075.56
2023-05-19T02:40:38.588Z,102072.38
2023-05-19T02:42:40.044Z,102079.31
2023-05-19T02:44:41.496Z,102078.53
2023-05-19T02:46:43.014Z,102059.06
2023-05-19T02:48:44.671Z,102072.94
2023-05-19T02:50:46.187Z,102082.44
2023-05-19T02:52:47.589Z,102071.97
2023-05-19T02:54:49.188Z,102076.00
2023-05-19T02:56:50.623Z,102077.81
2023-05-19T02:58:52.043Z,102088.19
2023-05-19T03:00:53.654Z,102068.47
2023-05-19T03:02:55.184Z,102083.53
2023-05-19T03:04:56.636Z,102073.03
2023-05-19T03:06:58.441Z,102087.03
2023-05-19T03:08:59.943Z,102065.03
2023-05-19T03:11:01.947Z,102081.25
2023-05-19T03:13:03.557Z,102085.22
2023-05-19T03:15:05.453Z,102076.66
2023-05-19T03:17:06.910Z,102088.81
2023-05-19T03:19:08.862Z,102100.31
2023-05-19T03:21:10.375Z,102095.50
2023-05-19T03:23:11.815Z,102092.31
2023-05-19T03:25:13.484Z,102092.34
2023-05-19T03:27:14.952Z,102089.03
2023-05-19T03:29:16.393Z,102087.88
2023-05-19T03:31:18.091Z,102082.16
2023-05-19T03:33:19.741Z,102093.94
2023-05-19T03:35:21.288Z,102097.00
2023-05-19T03:37:22.798Z,102075.34
2023-05-19T03:39:24.356Z,102097.13
2023-05-19T03:41:26.014Z,102096.16
2023-05-19T03:43:27.728Z,102096.06
2023-05-19T03:45:29.160Z,102090.75
2023-05-19T03:47:30.653Z,102074.59
2023-05-19T03:49:32.310Z,102093.19
2023-05-19T03:51:33.895Z,102093.84
2023-05-19T03:53:35.368Z,102092.22
2023-05-19T03:55:37.040Z,102071.91
2023-05-19T03:57:38.464Z,102067.22
2023-05-19T03:59:39.917Z,102085.41
2023-05-19T04:01:41.714Z,102088.06
2023-05-19T04:03:43.276Z,102081.63
2023-05-19T04:05:44.840Z,102064.28
2023-05-19T04:07:46.436Z,102058.00
2023-05-19T04:09:47.874Z,102077.34
2023-05-19T04:11:49.717Z,102087.84
2023-05-19T04:13:51.492Z,102078.53
2023-05-19T04:15:53.057Z,102084.69
2023-05-19T04:17:54.712Z,102082.53
2023-05-19T04:19:56.246Z,102090.38
2023-05-19T04:21:57.818Z,102073.00
2023-05-19T04:23:59.370Z,102084.06
2023-05-19T04:26:01.111Z,102071.03
2023-05-19T04:28:02.608Z,102065.75
2023-05-19T04:30:04.970Z,102070.94
2023-05-19T04:32:07.094Z,102081.69
2023-05-19T04:34:08.537Z,102089.38
2023-05-19T04:36:10.115Z,102090.53
2023-05-19T04:38:11.659Z,102082.16
2023-05-19T04:40:13.358Z,102098.94
2023-05-19T04:42:14.812Z,102086.47
2023-05-19T04:44:16.338Z,102074.47
2023-05-19T04:46:17.795Z,102097.56
2023-05-19T04:48:19.280Z,102100.00
2023-05-19T04:50:20.933Z,102076.94
2023-05-19T04:52:22.577Z,102100.75
2023-05-19T04:54:24.045Z,102103.63
2023-05-19T04:56:25.718Z,102071.16
2023-05-19T04:58:27.255Z,102078.72
2023-05-19T05:00:28.763Z,102096.19
2023-05-19T05:02:30.397Z,102093.28
2023-05-19T05:04:31.838Z,102096.34
2023-05-19T05:06:33.467Z,102082.19
2023-05-19T05:08:35.218Z,102099.28
2023-05-19T05:10:36.687Z,102096.91
2023-05-19T05:12:38.410Z,102083.41
2023-05-19T05:14:40.390Z,102094.06
2023-05-19T05:16:42.649Z,102102.75
2023-05-19T05:18:45.017Z,102103.50
2023-05-19T05:20:47.032Z,102117.97
2023-05-19T05:22:48.852Z,102097.00
2023-05-19T05:24:50.466Z,102109.88
2023-05-19T05:26:52.231Z,102110.03
2023-05-19T05:28:53.650Z,102096.19
2023-05-19T05:30:55.113Z,102115.97
2023-05-19T05:32:57.428Z,102111.69
2023-05-19T05:34:59.179Z,102110.72
2023-05-19T05:37:00.653Z,102107.97
2023-05-19T05:39:02.296Z,102107.97
2023-05-19T05:41:03.886Z,102115.84
2023-05-19T05:43:05.457Z,102115.31
2023-05-19T05:45:07.830Z,102101.78
2023-05-19T05:47:09.600Z,102102.91
2023-05-19T05:49:11.489Z,102118.34
2023-05-19T05:51:13.167Z,102121.22
2023-05-19T05:53:18.826Z,102121.47
2023-05-19T05:55:20.659Z,102109.00
2023-05-19T05:57:22.618Z,102112.31
2023-05-19T05:59:24.069Z,102100.19
2023-05-19T06:01:25.570Z,102117.94
2023-05-19T06:03:27.362Z,102101.41
2023-05-19T06:05:28.848Z,102093.88
2023-05-19T06:07:30.370Z,102108.25
2023-05-19T06:09:31.947Z,102117.41
2023-05-19T06:11:33.438Z,102114.56
2023-05-19T06:13:38.806Z,102106.81
2023-05-19T06:15:40.351Z,102112.41
2023-05-19T06:17:41.819Z,102127.03
2023-05-19T06:19:43.266Z,102111.72
2023-05-19T06:21:44.781Z,102117.84
2023-05-19T06:23:46.645Z,102116.44
2023-05-19T06:25:48.171Z,102120.19
2023-05-19T06:27:49.609Z,102101.66
2023-05-19T06:29:51.182Z,102110.03
2023-05-19T06:31:52.724Z,102075.13
2023-05-19T06:33:54.217Z,102125.66
2023-05-19T06:35:55.684Z,102120.16
2023-05-19T06:37:57.336Z,102120.94
2023-05-19T06:39:58.773Z,102111.09
2023-05-19T06:42:00.218Z,102075.75
2023-05-19T06:44:01.660Z,102115.97
2023-05-19T06:46:03.327Z,102106.63
2023-05-19T06:48:04.991Z,102103.09
2023-05-19T06:50:06.733Z,102114.13
2023-05-19T06:52:08.451Z,102113.00
2023-05-19T06:54:10.075Z,102117.34
2023-05-19T06:56:11.513Z,102096.31
2023-05-19T06:58:13.103Z,102105.22
2023-05-19T07:00:17.988Z,102111.63
2023-05-19T07:02:20.835Z,102114.63
2023-05-19T07:04:22.462Z,102116.31
2023-05-19T07:06:23.927Z,102104.56
2023-05-19T07:08:25.432Z,102099.69
2023-05-19T07:10:27.766Z,102085.38
2023-05-19T07:12:29.186Z,102099.75
2023-05-19T07:14:30.637Z,102101.88
2023-05-19T07:16:32.872Z,102100.31
2023-05-19T07:18:34.407Z,102095.38
2023-05-19T07:20:35.950Z,102089.75
2023-05-19T07:22:37.780Z,102098.25
2023-05-19T07:24:39.214Z,102088.97
2023-05-19T07:26:41.199Z,102090.97
2023-05-19T07:28:42.689Z,102092.25
2023-05-19T07:30:44.163Z,102095.00
2023-05-19T07:32:45.680Z,102099.59
2023-05-19T07:34:47.352Z,102097.03
2023-05-19T07:36:48.819Z,102103.75
2023-05-19T07:38:50.557Z,102104.53
2023-05-19T07:40:52.311Z,102099.75
2023-05-19T07:42:53.761Z,102108.69
2023-05-19T07:44:55.280Z,102062.19
2023-05-19T07:46:57.026Z,102095.97
2023-05-19T07:48:58.468Z,102088.53
2023-05-19T07:51:00.005Z,102093.41
2023-05-19T07:53:01.594Z,102079.47
2023-05-19T07:55:03.355Z,102101.25
2023-05-19T07:57:05.033Z,102081.06
2023-05-19T07:59:06.562Z,102080.13
2023-05-19T08:01:08.077Z,102098.91
2023-05-19T08:03:10.092Z,102097.31
2023-05-19T08:05:11.871Z,102084.41
2023-05-19T08:07:13.321Z,102098.69
2023-05-19T08:09:15.044Z,102094.78
2023-05-19T08:11:16.690Z,102099.41
2023-05-19T08:13:18.253Z,102098.56
2023-05-19T08:15:20.068Z,102093.81
2023-05-19T08:17:21.625Z,102085.22
2023-05-19T08:19:23.152Z,102092.56
2023-05-19T08:21:24.700Z,102069.97
2023-05-19T08:23:26.843Z,102027.66
2023-05-19T08:25:28.295Z,102083.00
2023-05-19T08:27:29.745Z,102094.25
2023-05-19T08:29:31.459Z,102083.44
2023-05-19T08:31:32.998Z,102077.53
2023-05-19T08:33:34.531Z,102067.00
2023-05-19T08:35:36.269Z,102083.03
2023-05-19T08:37:39.022Z,102083.31
2023-05-19T08:39:40.561Z,102081.34
2023-05-19T08:41:42.183Z,102079.50
2023-05-19T08:43:43.642Z,102077.66
2023-05-19T08:45:46.120Z,102084.66
2023-05-19T08:47:48.908Z,102072.63
2023-05-19T08:49:53.240Z,102063.63
2023-05-19T08:52:02.366Z,102083.44
2023-05-19T08:54:15.341Z,102085.38
2023-05-19T08:56:22.168Z,102074.69
2023-05-19T08:58:23.645Z,102091.69
2023-05-19T09:00:25.893Z,102069.19
2023-05-19T09:02:27.745Z,102077.06
2023-05-19T09:04:30.261Z,102079.47
2023-05-19T09:06:32.189Z,102095.13
2023-05-19T09:08:34.325Z,102087.41
2023-05-19T09:10:35.988Z,102078.50
2023-05-19T09:12:37.624Z,102075.25
2023-05-19T09:14:39.102Z,102065.72
2023-05-19T09:16:40.848Z,102052.38
2023-05-19T09:18:54.344Z,102077.66
2023-05-19T09:21:00.241Z,102082.59
2023-05-19T09:23:01.713Z,102082.72
2023-05-19T09:25:03.462Z,102083.34
2023-05-19T09:27:05.111Z,102080.88
2023-05-19T09:29:17.363Z,102086.31
2023-05-19T09:31:18.945Z,102076.16
2023-05-19T09:33:20.438Z,102065.44
2023-05-19T09:35:21.960Z,102069.94
2023-05-19T09:37:24.087Z,102079.09
2023-05-19T09:39:26.125Z,102062.56
2023-05-19T09:41:27.845Z,102067.56
2023-05-19T09:43:30.430Z,102052.34
2023-05-19T09:45:32.166Z,102054.94
2023-05-19T09:47:37.908Z,102060.22
2023-05-19T09:49:47.164Z,102057.09
2023-05-19T09:51:54.227Z,102066.16
2023-05-19T09:53:55.752Z,102049.31
2023-05-19T09:55:57.913Z,102073.00
2023-05-19T09:57:59.523Z,102074.94
2023-05-19T10:00:03.467Z,102067.63
2023-05-19T10:02:05.621Z,102050.03
2023-05-19T10:04:07.335Z,102059.50
2023-05-19T10:06:09.319Z,102058.09
2023-05-19T10:08:12.365Z,102063.00
2023-05-19T10:10:14.812Z,102067.56
2023-05-19T10:12:18.003Z,102068.94
2023-05-19T10:14:23.133Z,102062.59
2023-05-19T10:16:27.791Z,102055.38
2023-05-19T10:18:29.587Z,102047.41
2023-05-19T10:20:32.655Z,102056.31
2023-05-19T10:22:34.427Z,102045.13
2023-05-19T10:24:36.019Z,102040.72
2023-05-19T10:26:39.939Z,102053.22
2023-05-19T10:28:44.406Z,102055.13
2023-05-19T10:30:49.422Z,102054.78
2023-05-19T10:32:51.405Z,102056.22
2023-05-19T10:35:08.226Z,102049.91
2023-05-19T10:37:23.048Z,102060.59
2023-05-19T10:39:35.727Z,102064.97
2023-05-19T10:41:41.587Z,102057.31
2023-05-19T10:44:11.640Z,102070.00
2023-05-19T10:46:13.441Z,102055.00
2023-05-19T10:48:20.333Z,102064.06
2023-05-19T10:50:21.792Z,102066.56
2023-05-19T10:52:24.442Z,102042.44
2023-05-19T10:54:42.814Z,102068.13
2023-05-19T10:56:44.622Z,102064.91
2023-05-19T10:58:46.933Z,102064.00
2023-05-19T11:01:00.529Z,102056.75
2023-05-19T11:03:15.766Z,102055.53
2023-05-19T11:05:17.407Z,102053.00
2023-05-19T11:07:20.077Z,102061.34
2023-05-19T11:09:31.335Z,102055.69
2023-05-19T11:11:55.196Z,102047.81
2023-05-19T11:13:56.778Z,102063.38
2023-05-19T11:15:58.372Z,102055.16
2023-05-19T11:18:01.622Z,102051.03
2023-05-19T11:20:03.254Z,102069.41
2023-05-19T11:22:12.751Z,102068.31
2023-05-19T11:24:35.232Z,102070.44
2023-05-19T11:26:40.983Z,102058.19
2023-05-19T11:28:42.805Z,102068.97
2023-05-19T11:30:45.900Z,102070.09
2023-05-19T11:32:48.058Z,102057.13
2023-05-19T11:34:49.898Z,102075.19
2023-05-19T11:36:52.932Z,102065.84
2023-05-19T11:38:55.119Z,102074.00
2023-05-19T11:40:56.992Z,102059.28
2023-05-19T11:42:58.901Z,102074.75
2023-05-19T11:45:00.539Z,102064.94
2023-05-19T11:47:02.144Z,102066.16
2023-05-19T11:49:05.342Z,102067.28
2023-05-19T11:51:06.886Z,102054.72
2023-05-19T11:53:11.312Z,102064.84
2023-05-19T11:55:16.880Z,102068.00
2023-05-19T11:57:18.850Z,102058.19
2023-05-19T11:59:30.258Z,102060.81
2023-05-19T12:01:32.816Z,102047.84
2023-05-19T12:03:34.332Z,102062.56
2023-05-19T12:05:43.681Z,102050.19
2023-05-19T12:07:46.780Z,102065.88
2023-05-19T12:09:49.284Z,102053.09
2023-05-19T12:11:51.919Z,102056.34
2023-05-19T12:13:58.311Z,102051.69
2023-05-19T12:16:00.405Z,102051.25
2023-05-19T12:18:02.562Z,102057.72
2023-05-19T12:20:05.246Z,102053.56
2023-05-19T12:22:07.594Z,102055.72
2023-05-19T12:24:09.611Z,102032.53
2023-05-19T12:26:11.221Z,102056.66
2023-05-19T12:28:12.794Z,102063.38
2023-05-19T12:30:14.427Z,102056.69
2023-05-19T12:32:16.107Z,102054.00
2023-05-19T12:34:17.566Z,102053.38
2023-05-19T12:36:19.304Z,102051.16
2023-05-19T12:38:21.304Z,102040.72
2023-05-19T12:40:22.960Z,102054.72
2023-05-19T12:42:27.437Z,102062.38
2023-05-19T12:44:28.941Z,102066.09
2023-05-19T12:46:32.782Z,102059.66
2023-05-19T12:48:34.334Z,102045.13
2023-05-19T12:50:37.791Z,102020.16
2023-05-19T12:52:49.908Z,102055.84
2023-05-19T12:55:01.966Z,102054.06
2023-05-19T12:57:05.428Z,102064.38
2023-05-19T12:59:07.610Z,102062.84
2023-05-19T13:01:16.285Z,102059.28
2023-05-19T13:03:21.227Z,102043.00
2023-05-19T13:05:22.909Z,102065.53
2023-05-19T13:07:24.490Z,102069.13
2023-05-19T13:09:26.024Z,102065.81
2023-05-19T13:11:27.471Z,102059.38
2023-05-19T13:13:29.060Z,102062.31
2023-05-19T13:15:32.691Z,102060.09
2023-05-19T13:17:34.069Z,102046.72
2023-05-19T13:19:35.669Z,102048.84
2023-05-19T13:21:37.432Z,102030.28
2023-05-19T13:23:38.865Z,102035.34
2023-05-19T13:25:41.247Z,102041.25
2023-05-19T13:27:44.539Z,102044.31
2023-05-19T13:29:46.078Z,102046.06
2023-05-19T13:31:47.506Z,102039.44
2023-05-19T13:33:49.076Z,102010.78
2023-05-19T13:35:50.578Z,102036.88
2023-05-19T13:37:52.273Z,102023.13
2023-05-19T13:39:54.463Z,102037.56
2023-05-19T13:41:58.169Z,102027.16
2023-05-19T13:43:59.600Z,102040.09
2023-05-19T13:46:01.159Z,102034.56
2023-05-19T13:48:02.787Z,102042.19
2023-05-19T13:50:05.025Z,102041.47
2023-05-19T13:52:06.758Z,102034.38
2023-05-19T13:54:08.193Z,102021.56
2023-05-19T13:56:09.667Z,102040.38
2023-05-19T13:58:11.273Z,102039.06
2023-05-19T14:00:13.220Z,102039.63
2023-05-19T14:02:14.794Z,102041.28
2023-05-19T14:04:18.764Z,102036.69
2023-05-19T14:06:20.281Z,102045.13
2023-05-19T14:08:21.753Z,102039.69
2023-05-19T14:10:23.420Z,102039.81
2023-05-19T14:12:36.405Z,102032.50
2023-05-19T14:14:44.978Z,102043.81
2023-05-19T14:16:46.662Z,102030.19
2023-05-19T14:18:48.267Z,102048.38
2023-05-19T14:20:49.745Z,102043.69
2023-05-19T14:22:51.419Z,102047.00
2023-05-19T14:24:52.864Z,102042.38
2023-05-19T14:26:54.324Z,102035.97
2023-05-19T14:28:56.033Z,102026.69
2023-05-19T14:30:57.467Z,102033.06
2023-05-19T14:32:59.080Z,102027.63
2023-05-19T14:35:00.697Z,102032.31
2023-05-19T14:37:02.152Z,102034.94
2023-05-19T14:39:03.661Z,102041.09
2023-05-19T14:41:06.618Z,102034.72
2023-05-19T14:43:08.102Z,102033.66
2023-05-19T14:45:10.191Z,102035.00
2023-05-19T14:47:12.162Z,102028.81
2023-05-19T14:49:13.696Z,102017.34
2023-05-19T14:51:15.154Z,102035.25
2023-05-19T14:53:16.696Z,102017.47
2023-05-19T14:55:18.155Z,102034.75
2023-05-19T14:57:19.605Z,102036.41
2023-05-19T14:59:21.246Z,102038.66
2023-05-19T15:01:22.756Z,102037.63
2023-05-19T15:03:26.780Z,102034.63
2023-05-19T15:05:28.327Z,102027.38
2023-05-19T15:07:29.948Z,102035.66
2023-05-19T15:09:31.421Z,102027.34
2023-05-19T15:11:32.906Z,102026.72
2023-05-19T15:13:34.424Z,102029.81
2023-05-19T15:15:35.878Z,102043.13
2023-05-19T15:17:37.417Z,102040.63
2023-05-19T15:19:38.866Z,102033.22
2023-05-19T15:21:40.300Z,102015.22
2023-05-19T15:23:41.905Z,102037.81
2023-05-19T15:25:43.402Z,102028.38
2023-05-19T15:27:44.844Z,102030.19
2023-05-19T15:29:46.440Z,102031.13
2023-05-19T15:31:51.593Z,102024.91
2023-05-19T15:33:53.200Z,102028.22
2023-05-19T15:35:54.695Z,102012.94
2023-05-19T15:37:56.152Z,102020.16
2023-05-19T15:39:57.605Z,102025.59
2023-05-19T15:41:59.425Z,102022.72
2023-05-19T15:44:01.077Z,102008.34
2023-05-19T15:46:02.827Z,102014.66
2023-05-19T15:48:04.508Z,102014.75
2023-05-19T15:50:06.479Z,102018.13
2023-05-19T15:52:07.918Z,102008.63
2023-05-19T15:54:09.827Z,102027.53
2023-05-19T15:56:11.381Z,102021.09
2023-05-19T15:58:12.832Z,101999.38
2023-05-19T16:00:14.842Z,102024.19
2023-05-19T16:02:16.359Z,101995.03
2023-05-19T16:04:18.079Z,102005.44
2023-05-19T16:06:19.674Z,101993.72
2023-05-19T16:08:21.107Z,101983.38
2023-05-19T16:10:22.589Z,102003.81
2023-05-19T16:12:24.129Z,101995.84
2023-05-19T16:14:26.493Z,102013.81
2023-05-19T16:16:29.140Z,102018.78
2023-05-19T16:18:30.700Z,102010.63
2023-05-19T16:20:32.421Z,102005.75
2023-05-19T16:22:34.057Z,102017.94
2023-05-19T16:24:35.598Z,101997.16
2023-05-19T16:26:37.181Z,101995.28
2023-05-19T16:28:38.642Z,102000.06
2023-05-19T16:30:40.617Z,102018.75
2023-05-19T16:32:42.451Z,102015.50
2023-05-19T16:34:43.946Z,102010.94
2023-05-19T16:36:45.396Z,102016.56
2023-05-19T16:38:46.857Z,102006.28
2023-05-19T16:40:48.297Z,102010.53
2023-05-19T16:42:49.779Z,102020.50
2023-05-19T16:44:51.252Z,102013.22
2023-05-19T16:46:52.680Z,102007.47
2023-05-19T16:48:54.217Z,102006.88
2023-05-19T16:50:55.652Z,102009.25
2023-05-19T16:52:57.097Z,102014.59
2023-05-19T16:54:58.602Z,102008.22
2023-05-19T16:57:00.519Z,102007.25
2023-05-19T16:59:02.030Z,102020.34
2023-05-19T17:01:03.723Z,102018.16
2023-05-19T17:03:05.379Z,102013.47
2023-05-19T17:05:07.464Z,102007.03
2023-05-19T17:07:11.588Z,102001.06
2023-05-19T17:09:13.331Z,102009.41
2023-05-19T17:11:14.767Z,102019.50
2023-05-19T17:13:16.227Z,102020.44
2023-05-19T17:15:17.813Z,102017.47
2023-05-19T17:17:19.417Z,102014.97
2023-05-19T17:19:21.109Z,101995.75
2023-05-19T17:21:22.593Z,101994.31
2023-05-19T17:23:24.039Z,102006.63
2023-05-19T17:25:25.652Z,102019.06
2023-05-19T17:27:27.099Z,102010.91
2023-05-19T17:29:28.556Z,101977.16
2023-05-19T17:31:30.083Z,101968.28
2023-05-19T17:33:31.604Z,102013.97
2023-05-19T17:35:33.454Z,102010.16
2023-05-19T17:37:35.230Z,102006.47
2023-05-19T17:39:36.771Z,102000.25
2023-05-19T17:41:38.325Z,102019.00
2023-05-19T17:43:41.410Z,102009.16
2023-05-19T17:45:42.910Z,102005.56
2023-05-19T17:47:44.405Z,102017.16
2023-05-19T17:49:46.168Z,102022.38
2023-05-19T17:51:47.664Z,102022.22
2023-05-19T17:53:49.437Z,102012.56
2023-05-19T17:55:53.126Z,101994.69
2023-05-19T17:57:54.657Z,102024.25
2023-05-19T17:59:56.386Z,102022.66
2023-05-19T18:01:58.326Z,101989.09
2023-05-19T18:04:00.207Z,102021.22
2023-05-19T18:06:02.227Z,102022.69
2023-05-19T18:08:06.870Z,102011.63
2023-05-19T18:10:09.213Z,102019.00
2023-05-19T18:12:10.921Z,102011.28
2023-05-19T18:14:12.560Z,102013.78
2023-05-19T18:16:14.019Z,102004.00
2023-05-19T18:18:15.568Z,102014.06
2023-05-19T18:20:17.248Z,102020.16
2023-05-19T18:22:18.674Z,102025.66
2023-05-19T18:24:20.314Z,102024.47
2023-05-19T18:26:21.935Z,102023.03
2023-05-19T18:28:23.907Z,102025.84
2023-05-19T18:30:25.556Z,102024.56
2023-05-19T18:32:27.393Z,102016.84
2023-05-19T18:34:29.436Z,102014.44
2023-05-19T18:36:31.679Z,102022.31
2023-05-19T18:38:33.192Z,102034.72
2023-05-19T18:40:34.894Z,102026.69
2023-05-19T18:42:36.711Z,102036.09
2023-05-19T18:44:38.756Z,102019.34
2023-05-19T18:46:40.217Z,102030.75
2023-05-19T18:48:41.838Z,102047.06
2023-05-19T18:50:43.441Z,102041.56
2023-05-19T18:52:44.882Z,102044.41
2023-05-19T18:54:46.920Z,102052.81
2023-05-19T18:56:48.568Z,102042.13
2023-05-19T18:58:50.220Z,102032.38
2023-05-19T19:00:55.085Z,102005.94
2023-05-19T19:02:56.938Z,102036.16
2023-05-19T19:04:58.616Z,102044.69
2023-05-19T19:07:02.624Z,102045.03
2023-05-19T19:09:04.511Z,102038.31
2023-05-19T19:11:05.976Z,102045.75
2023-05-19T19:13:07.685Z,102042.34
2023-05-19T19:15:09.814Z,102040.06
2023-05-19T19:17:11.374Z,102047.69
2023-05-19T19:19:13.171Z,102040.38
2023-05-19T19:21:14.827Z,102059.38
2023-05-19T19:23:16.271Z,102045.88
2023-05-19T19:25:18.023Z,102038.13
2023-05-19T19:27:19.522Z,102038.84
2023-05-19T19:29:20.968Z,102046.25
2023-05-19T19:31:22.981Z,102052.44
2023-05-19T19:33:24.418Z,102036.69
2023-05-19T19:35:25.900Z,102036.78
2023-05-19T19:37:27.477Z,102051.66
2023-05-19T19:39:28.986Z,102051.25
2023-05-19T19:41:30.475Z,102045.59
2023-05-19T19:43:32.129Z,102049.38
2023-05-19T19:45:34.037Z,102035.38
2023-05-19T19:47:38.338Z,102047.06
2023-05-19T19:49:40.016Z,102048.75
2023-05-19T19:51:41.607Z,102055.31
2023-05-19T19:53:43.051Z,102053.78
2023-05-19T19:55:44.487Z,102061.50
2023-05-19T19:57:46.017Z,102057.38
2023-05-19T19:59:47.486Z,102059.22
2023-05-19T20:01:49.432Z,102049.69
2023-05-19T20:03:51.270Z,102055.41
2023-05-19T20:05:54.777Z,102043.31
2023-05-19T20:07:56.482Z,102058.19
2023-05-19T20:09:58.476Z,102054.53
2023-05-19T20:11:59.899Z,102056.22
2023-05-19T20:14:01.595Z,102062.75
2023-05-19T20:16:03.088Z,102051.66
2023-05-19T20:18:04.622Z,102055.81
2023-05-19T20:20:07.390Z,102061.69
2023-05-19T20:22:08.954Z,102051.69
2023-05-19T20:24:10.388Z,102064.56
2023-05-19T20:26:13.469Z,102066.03
2023-05-19T20:28:15.507Z,102063.34
2023-05-19T20:30:16.938Z,102074.28
2023-05-19T20:32:18.590Z,102068.69
2023-05-19T20:34:20.225Z,102050.47
2023-05-19T20:36:21.740Z,102049.63
2023-05-19T20:38:23.393Z,102070.91
2023-05-19T20:40:24.933Z,102070.53
2023-05-19T20:42:26.382Z,102072.72
2023-05-19T20:44:28.629Z,102048.47
2023-05-19T20:46:30.121Z,102062.22
2023-05-19T20:48:31.572Z,102058.00
2023-05-19T20:50:33.322Z,102067.00
2023-05-19T20:52:35.015Z,102059.97
2023-05-19T20:54:36.580Z,102059.97
2023-05-19T20:56:38.352Z,102064.34
2023-05-19T20:58:39.900Z,102054.63
2023-05-19T21:00:41.367Z,102052.41
2023-05-19T21:02:43.021Z,102058.69
2023-05-19T21:04:44.760Z,102063.63
2023-05-19T21:06:46.426Z,102056.34
2023-05-19T21:08:47.988Z,102060.47
2023-05-19T21:10:49.554Z,102060.97
2023-05-19T21:12:51.011Z,102058.41
2023-05-19T21:14:52.468Z,102072.44
2023-05-19T21:16:55.615Z,102044.88
2023-05-19T21:18:57.128Z,102067.41
2023-05-19T21:21:02.140Z,102044.66
2023-05-19T21:23:03.824Z,102070.22
2023-05-19T21:25:05.814Z,102070.91
2023-05-19T21:27:07.392Z,102072.66
2023-05-19T21:29:09.546Z,102063.66
2023-05-19T21:31:11.092Z,102059.03
2023-05-19T21:33:12.722Z,102072.53
2023-05-19T21:35:14.465Z,102070.81
2023-05-19T21:37:15.916Z,102071.19
2023-05-19T21:39:17.488Z,102065.22
2023-05-19T21:41:19.027Z,102075.03
2023-05-19T21:43:20.588Z,102057.91
2023-05-19T21:45:22.200Z,102063.22
2023-05-19T21:47:23.774Z,102053.34
2023-05-19T21:49:25.199Z,102069.81
2023-05-19T21:51:26.853Z,102055.91
2023-05-19T21:53:28.371Z,102050.91
2023-05-19T21:55:29.818Z,102078.72
2023-05-19T21:57:31.352Z,102078.72
2023-05-19T21:59:32.819Z,102080.66
2023-05-19T22:01:34.319Z,102084.59
2023-05-19T22:03:35.951Z,102081.66
2023-05-19T22:05:37.601Z,102069.59
2023-05-19T22:07:39.071Z,102040.09
2023-05-19T22:09:40.497Z,102079.25
2023-05-19T22:11:41.960Z,102081.19
2023-05-19T22:13:43.988Z,102084.19
2023-05-19T22:15:46.394Z,102077.84
2023-05-19T22:17:47.968Z,102082.22
2023-05-19T22:19:49.414Z,102072.25
2023-05-19T22:21:55.903Z,102068.31
2023-05-19T22:24:04.014Z,102067.47
2023-05-19T22:26:05.543Z,102078.72
2023-05-19T22:28:07.138Z,102075.63
2023-05-19T22:30:08.852Z,102072.94
2023-05-19T22:32:10.290Z,102081.78
2023-05-19T22:34:12.068Z,102071.94
2023-05-19T22:36:13.651Z,102053.97
2023-05-19T22:38:15.112Z,102067.16
2023-05-19T22:40:16.791Z,102060.66
2023-05-19T22:42:18.299Z,102065.72
2023-05-19T22:44:19.751Z,102056.72
2023-05-19T22:46:21.340Z,102061.81
2023-05-19T22:48:22.796Z,102058.09
2023-05-19T22:50:24.226Z,102061.56
2023-05-19T22:52:25.761Z,102056.22
2023-05-19T22:54:27.315Z,102063.06
2023-05-19T22:56:28.782Z,102054.66
2023-05-19T22:58:30.303Z,102042.44
2023-05-19T23:00:32.150Z,102051.78
2023-05-19T23:02:33.723Z,102040.56
2023-05-19T23:04:35.799Z,102050.06
2023-05-19T23:06:37.603Z,102013.66
2023-05-19T23:08:39.027Z,102033.22
2023-05-19T23:10:40.572Z,102049.25
2023-05-19T23:12:42.234Z,102055.53
2023-05-19T23:14:43.672Z,102054.69
2023-05-19T23:16:45.345Z,102053.13
2023-05-19T23:18:47.333Z,102059.34